Time;durP1;ratioP1;P1;durP2;ratioP2;P2;SDS_P1;SDS_P2;PMS_P1;PMS_P2;Temp;Humidity;BMP_temperature;BMP_pressure;BME280_temperature;BME280_humidity;BME280_pressure;Samples;Min_cycle;Max_cycle;Signal;HPM_P1;HPM_P2
2022/03/27 00:00:46;;;;;;;4.72;3.17;;;19.50;40.50;;;;;;5118676;28;20385;-59
2022/03/27 00:03:12;;;;;;;3.75;3.22;;;19.60;40.50;;;;;;5100458;28;20089;-57
2022/03/27 00:05:39;;;;;;;3.78;3.20;;;19.50;40.50;;;;;;5118862;28;20024;-58
2022/03/27 00:08:05;;;;;;;4.63;3.50;;;19.60;40.50;;;;;;5120482;28;20023;-58
2022/03/27 00:11:23;;;;;;;5.00;3.58;;;19.50;40.50;;;;;;5121601;28;20019;-56
2022/03/27 00:13:17;;;;;;;3.40;3.10;;;19.50;40.60;;;;;;5105232;28;20023;-58
2022/03/27 00:15:43;;;;;;;3.53;3.05;;;19.60;40.60;;;;;;5100087;28;20030;-58
2022/03/27 00:18:09;;;;;;;4.07;3.15;;;19.50;40.60;;;;;;5116832;28;20098;-57
2022/03/27 00:20:35;;;;;;;5.35;3.20;;;19.50;40.60;;;;;;5117635;28;20015;-58
2022/03/27 00:23:03;;;;;;;4.78;3.40;;;19.50;40.60;;;;;;5117351;28;20477;-59
2022/03/27 00:25:29;;;;;;;3.17;2.88;;;19.50;40.60;;;;;;5098811;28;20015;-58
2022/03/27 00:27:55;;;;;;;3.55;3.25;;;19.50;40.60;;;;;;5117468;28;20012;-59
2022/03/27 00:30:22;;;;;;;3.38;3.08;;;19.50;40.70;;;;;;5117684;28;20498;-59
2022/03/27 00:32:48;;;;;;;4.05;3.00;;;19.50;40.70;;;;;;5117849;28;20016;-58
2022/03/27 00:35:15;;;;;;;3.78;3.28;;;19.50;40.70;;;;;;5118181;28;20019;-58
2022/03/27 00:37:42;;;;;;;3.70;2.90;;;19.50;40.70;;;;;;5119018;28;20030;-59
2022/03/27 00:40:09;;;;;;;4.90;3.20;;;19.50;40.70;;;;;;5117546;28;20023;-56
2022/03/27 00:42:36;;;;;;;3.53;3.22;;;19.50;40.70;;;;;;5117032;28;20024;-55
2022/03/27 00:45:02;;;;;;;3.60;3.00;;;19.40;40.80;;;;;;5115959;28;20016;-57
2022/03/27 00:47:28;;;;;;;3.67;3.03;;;19.50;40.80;;;;;;5116902;28;20027;-57
2022/03/27 00:49:54;;;;;;;3.97;3.22;;;19.40;40.80;;;;;;5116779;28;20016;-57
2022/03/27 00:52:20;;;;;;;4.28;3.30;;;19.40;40.80;;;;;;5116122;28;20092;-58
2022/03/27 00:54:46;;;;;;;3.92;2.97;;;19.50;40.90;;;;;;5097989;28;20370;-58
2022/03/27 00:57:13;;;;;;;3.88;3.40;;;19.40;40.80;;;;;;5097991;28;20023;-56
2022/03/27 00:59:39;;;;;;;3.95;3.05;;;19.40;40.80;;;;;;5116690;28;20066;-58
2022/03/27 01:02:06;;;;;;;5.20;3.22;;;19.40;40.90;;;;;;5116098;28;20012;-55
2022/03/27 01:04:33;;;;;;;4.13;3.35;;;19.40;40.90;;;;;;5115490;28;20088;-57
2022/03/27 01:06:59;;;;;;;3.30;3.00;;;19.40;40.90;;;;;;5115397;28;20028;-57
2022/03/27 01:09:37;;;;;;;3.95;3.25;;;19.40;40.90;;;;;;5115378;28;20462;-56
2022/03/27 01:12:14;;;;;;;5.65;3.10;;;19.40;40.90;;;;;;5116342;28;20016;-58
2022/03/27 01:14:40;;;;;;;4.00;3.50;;;19.40;40.90;;;;;;5115814;28;20522;-57
2022/03/27 01:17:08;;;;;;;5.32;3.13;;;19.40;40.90;;;;;;5115540;28;20050;-56
2022/03/27 01:19:40;;;;;;;3.53;3.20;;;19.40;40.90;;;;;;5115151;28;20012;-58
2022/03/27 01:22:07;;;;;;;5.82;3.40;;;19.40;41.00;;;;;;5114999;28;20012;-55
2022/03/27 01:24:33;;;;;;;3.78;2.83;;;19.40;41.00;;;;;;5115065;28;20008;-56
2022/03/27 01:26:59;;;;;;;2.97;2.72;;;19.40;41.50;;;;;;5115295;28;20038;-55
2022/03/27 01:29:25;;;;;;;4.65;3.30;;;19.40;41.00;;;;;;5115159;28;20077;-55
2022/03/27 01:31:54;;;;;;;3.90;3.35;;;19.40;41.00;;;;;;5115316;28;20008;-58
2022/03/27 01:34:21;;;;;;;4.85;3.10;;;19.40;41.00;;;;;;5097785;28;20024;-58
2022/03/27 01:36:46;;;;;;;4.47;2.97;;;19.40;41.00;;;;;;5115599;28;20102;-58
2022/03/27 01:39:13;;;;;;;4.00;2.90;;;19.30;41.00;;;;;;5115475;28;20020;-56
2022/03/27 01:41:40;;;;;;;3.20;2.90;;;19.40;41.10;;;;;;5115865;28;20019;-57
2022/03/27 01:44:07;;;;;;;3.17;2.88;;;19.30;41.10;;;;;;5116153;28;20019;-57
2022/03/27 01:46:34;;;;;;;3.95;3.00;;;19.30;41.10;;;;;;5114614;28;20015;-58
2022/03/27 01:49:00;;;;;;;3.25;2.95;;;19.30;41.10;;;;;;5114971;28;20043;-56
2022/03/27 01:51:27;;;;;;;3.35;3.05;;;19.40;41.20;;;;;;5114228;28;20023;-58
2022/03/27 01:53:54;;;;;;;3.20;2.90;;;19.40;41.70;;;;;;5114456;28;20090;-56
2022/03/27 01:56:19;;;;;;;3.05;2.75;;;19.30;41.20;;;;;;5114232;28;20020;-56
2022/03/27 01:58:48;;;;;;;4.10;3.20;;;19.30;41.10;;;;;;5114195;28;20099;-57
2022/03/27 02:01:16;;;;;;;3.47;3.15;;;19.30;41.20;;;;;;5114310;28;20038;-58
2022/03/27 02:03:44;;;;;;;3.53;3.20;;;19.30;41.20;;;;;;5114500;28;20035;-58
2022/03/27 02:06:12;;;;;;;3.58;2.97;;;19.30;41.20;;;;;;5114356;28;20065;-58
2022/03/27 02:08:37;;;;;;;3.92;2.85;;;19.30;41.20;;;;;;5114880;28;20020;-58
2022/03/27 02:11:05;;;;;;;3.13;2.83;;;19.30;41.30;;;;;;5114942;28;20081;-56
2022/03/27 02:13:31;;;;;;;4.63;3.35;;;19.30;41.30;;;;;;5114661;28;20073;-58
2022/03/27 02:16:01;;;;;;;3.30;2.95;;;19.20;41.20;;;;;;5114124;28;20039;-59
2022/03/27 02:18:27;;;;;;;2.83;2.63;;;19.30;41.30;;;;;;5114565;28;20041;-58
2022/03/27 02:20:54;;;;;;;3.55;3.03;;;19.30;41.30;;;;;;5116076;28;20466;-59
2022/03/27 02:23:21;;;;;;;4.03;3.20;;;19.30;41.30;;;;;;5116291;28;20027;-58
2022/03/27 02:25:47;;;;;;;3.28;2.97;;;19.30;41.30;;;;;;5117470;28;20016;-58
2022/03/27 02:28:13;;;;;;;3.45;3.03;;;19.20;41.30;;;;;;5118035;28;20018;-58
2022/03/27 02:30:39;;;;;;;3.15;2.85;;;19.20;41.30;;;;;;5117622;28;20047;-58
2022/03/27 02:33:07;;;;;;;3.78;3.10;;;19.20;41.30;;;;;;5100488;28;20073;-58
2022/03/27 02:35:33;;;;;;;3.30;3.00;;;19.20;41.30;;;;;;5117512;28;20020;-58
2022/03/27 02:38:00;;;;;;;3.28;2.97;;;19.30;41.40;;;;;;5096931;28;20039;-58
2022/03/27 02:40:26;;;;;;;4.18;3.20;;;19.20;41.30;;;;;;5114768;28;20023;-56
2022/03/27 02:42:52;;;;;;;3.75;3.20;;;19.20;41.40;;;;;;5114746;28;20020;-58
2022/03/27 02:45:18;;;;;;;3.38;3.08;;;19.20;41.40;;;;;;5097711;28;20043;-58
2022/03/27 02:47:44;;;;;;;3.75;2.92;;;19.20;41.40;;;;;;5116300;28;20012;-58
2022/03/27 02:50:10;;;;;;;4.13;3.10;;;19.20;41.40;;;;;;5097636;28;20016;-55
2022/03/27 02:52:36;;;;;;;4.38;3.35;;;19.20;41.50;;;;;;5098683;28;20039;-58
2022/03/27 02:55:05;;;;;;;3.20;2.90;;;19.20;41.50;;;;;;5116160;28;20016;-58
2022/03/27 02:57:33;;;;;;;3.30;3.00;;;19.20;41.50;;;;;;5116648;28;20019;-55
2022/03/27 02:59:59;;;;;;;3.08;2.78;;;19.20;41.50;;;;;;5115330;28;20026;-50
2022/03/27 03:02:26;;;;;;;3.42;3.13;;;19.20;41.50;;;;;;5097856;28;20057;-49
2022/03/27 03:04:55;;;;;;;3.53;2.78;;;19.20;41.50;;;;;;5115691;28;20011;-50
2022/03/27 03:07:20;;;;;;;4.60;2.75;;;19.20;41.50;;;;;;5115550;28;20069;-53
2022/03/27 03:09:47;;;;;;;5.13;2.53;;;19.20;41.50;;;;;;5101428;28;20397;-55
2022/03/27 03:12:13;;;;;;;2.95;2.65;;;19.20;41.60;;;;;;5119859;28;20546;-55
2022/03/27 03:14:40;;;;;;;4.13;2.80;;;19.20;41.60;;;;;;5119794;28;20011;-53
2022/03/27 03:17:08;;;;;;;3.50;3.05;;;19.20;41.60;;;;;;5120373;28;20031;-57
2022/03/27 03:19:34;;;;;;;7.50;2.95;;;19.10;41.60;;;;;;5120384;28;20046;-54
2022/03/27 03:22:02;;;;;;;3.65;3.15;;;19.20;41.60;;;;;;5120822;28;20007;-55
2022/03/27 03:24:28;;;;;;;3.70;2.90;;;19.20;41.60;;;;;;5120586;28;20687;-57
2022/03/27 03:26:54;;;;;;;3.72;2.92;;;19.10;41.60;;;;;;5120013;28;20099;-58
2022/03/27 03:29:24;;;;;;;3.20;2.70;;;19.20;41.70;;;;;;5120619;28;20472;-57
2022/03/27 03:31:51;;;;;;;3.87;2.77;;;19.20;41.70;;;;;;5120575;28;20020;-55
2022/03/27 03:34:18;;;;;;;3.20;2.80;;;19.10;41.70;;;;;;5120513;28;20011;-57
2022/03/27 03:36:44;;;;;;;3.50;2.80;;;19.10;41.70;;;;;;5102241;28;20816;-52
2022/03/27 03:39:12;;;;;;;4.32;2.88;;;19.10;41.70;;;;;;5120135;28;20020;-53
2022/03/27 03:41:38;;;;;;;3.13;2.83;;;19.10;41.80;;;;;;5100277;28;20042;-56
2022/03/27 03:44:04;;;;;;;3.85;3.22;;;19.10;41.70;;;;;;5120402;28;20034;-59
2022/03/27 03:46:30;;;;;;;3.58;3.00;;;19.10;41.80;;;;;;5086219;28;20019;-58
2022/03/27 03:48:58;;;;;;;3.00;2.70;;;19.10;41.80;;;;;;5120147;28;20072;-58
2022/03/27 03:51:26;;;;;;;3.33;3.03;;;19.10;41.80;;;;;;5119129;28;20004;-58
2022/03/27 03:53:52;;;;;;;4.00;2.70;;;19.10;41.80;;;;;;5083607;28;20061;-58
2022/03/27 03:56:18;;;;;;;3.13;2.83;;;19.10;41.80;;;;;;5100400;28;20032;-58
2022/03/27 03:58:44;;;;;;;3.38;3.08;;;19.10;41.80;;;;;;5119865;28;20027;-58
2022/03/27 04:01:10;;;;;;;3.33;2.92;;;19.10;41.90;;;;;;5123025;28;20074;-56
2022/03/27 04:03:38;;;;;;;3.00;2.70;;;19.10;41.90;;;;;;5123609;28;20058;-58
2022/03/27 04:06:04;;;;;;;3.15;2.88;;;19.10;41.90;;;;;;5104851;28;20027;-54
2022/03/27 04:08:29;;;;;;;3.25;2.70;;;19.10;41.90;;;;;;5122492;28;20016;-54
2022/03/27 04:10:55;;;;;;;4.03;3.00;;;19.10;42.00;;;;;;5122296;28;20085;-57
2022/03/27 04:13:22;;;;;;;3.17;2.47;;;19.00;41.90;;;;;;5121536;28;20047;-58
2022/03/27 04:15:48;;;;;;;3.00;2.70;;;19.10;41.90;;;;;;5121951;28;20032;-58
2022/03/27 04:18:14;;;;;;;3.15;2.83;;;19.00;41.90;;;;;;5120448;28;20487;-56
2022/03/27 04:20:41;;;;;;;5.68;2.95;;;19.00;41.90;;;;;;5122000;28;20016;-55
2022/03/27 04:23:08;;;;;;;3.78;3.30;;;19.00;41.90;;;;;;5117445;28;20030;-54
2022/03/27 04:25:35;;;;;;;4.18;2.70;;;19.10;42.00;;;;;;5117083;28;20039;-54
2022/03/27 04:28:06;;;;;;;3.30;2.90;;;19.00;41.90;;;;;;5118524;28;20036;-54
2022/03/27 04:30:32;;;;;;;3.15;2.75;;;19.00;42.00;;;;;;5119912;28;20104;-54
2022/03/27 04:32:59;;;;;;;3.20;2.90;;;19.10;42.00;;;;;;5121183;28;20039;-52
2022/03/27 04:35:26;;;;;;;3.42;3.13;;;19.10;42.10;;;;;;5101780;28;20020;-56
2022/03/27 04:37:52;;;;;;;3.08;2.78;;;19.00;42.00;;;;;;5119776;28;20075;-54
2022/03/27 04:40:18;;;;;;;4.60;3.10;;;19.00;42.10;;;;;;5118673;28;20028;-52
2022/03/27 04:42:45;;;;;;;3.20;2.78;;;19.00;42.10;;;;;;5118951;28;20156;-52
2022/03/27 04:45:11;;;;;;;3.08;2.78;;;19.00;42.10;;;;;;5119014;28;20478;-53
2022/03/27 04:47:38;;;;;;;3.30;3.00;;;19.00;42.10;;;;;;5119420;28;20020;-54
2022/03/27 04:50:05;;;;;;;2.80;2.42;;;19.00;42.10;;;;;;5118026;28;20012;-54
2022/03/27 04:52:31;;;;;;;3.35;3.05;;;19.00;42.10;;;;;;5116724;28;20047;-55
2022/03/27 04:54:58;;;;;;;3.45;2.88;;;19.00;42.10;;;;;;5116769;28;20474;-48
2022/03/27 04:57:24;;;;;;;3.55;2.88;;;19.00;42.20;;;;;;5117498;28;20077;-54
2022/03/27 04:59:51;;;;;;;4.10;2.78;;;19.00;42.20;;;;;;5118266;28;20027;-53
2022/03/27 05:02:17;;;;;;;3.38;2.90;;;19.00;42.20;;;;;;5117674;28;20019;-50
2022/03/27 05:04:43;;;;;;;3.38;2.65;;;18.90;42.20;;;;;;5116694;28;20012;-53
2022/03/27 05:07:09;;;;;;;3.00;2.40;;;18.90;42.20;;;;;;5116373;28;20484;-53
2022/03/27 05:09:36;;;;;;;3.50;3.17;;;19.00;42.30;;;;;;5116130;28;20518;-52
2022/03/27 05:12:03;;;;;;;3.65;2.97;;;18.90;42.30;;;;;;5116074;28;20027;-54
2022/03/27 05:14:30;;;;;;;3.40;2.80;;;19.00;42.30;;;;;;5115933;28;20026;-53
2022/03/27 05:16:57;;;;;;;5.43;3.53;;;19.00;42.30;;;;;;5116095;28;20042;-52
2022/03/27 05:19:23;;;;;;;3.47;3.10;;;18.90;42.20;;;;;;5115803;28;20027;-54
2022/03/27 05:21:49;;;;;;;4.22;3.20;;;19.00;42.30;;;;;;5097322;28;20018;-55
2022/03/27 05:24:16;;;;;;;3.67;3.33;;;18.90;42.30;;;;;;5115705;28;20482;-52
2022/03/27 05:26:42;;;;;;;3.45;2.85;;;18.90;42.30;;;;;;5115363;28;20019;-53
2022/03/27 05:29:10;;;;;;;3.78;3.00;;;18.90;42.30;;;;;;5115924;28;20031;-54
2022/03/27 05:31:36;;;;;;;4.75;3.63;;;18.90;42.30;;;;;;5114777;28;20066;-51
2022/03/27 05:34:03;;;;;;;3.80;3.42;;;18.90;42.40;;;;;;5097529;28;20031;-56
2022/03/27 05:36:29;;;;;;;4.57;3.67;;;18.90;42.40;;;;;;5116728;28;20496;-53
2022/03/27 05:38:55;;;;;;;4.22;3.55;;;18.90;42.40;;;;;;5116324;28;20509;-55
2022/03/27 05:41:21;;;;;;;4.22;3.67;;;18.90;42.40;;;;;;5099116;28;20012;-55
2022/03/27 05:43:47;;;;;;;5.75;3.60;;;18.90;42.40;;;;;;5121403;28;20027;-53
2022/03/27 05:46:13;;;;;;;3.90;3.50;;;18.90;42.40;;;;;;5105307;28;20011;-53
2022/03/27 05:48:39;;;;;;;7.97;3.90;;;18.90;42.50;;;;;;5121923;28;20012;-54
2022/03/27 05:51:05;;;;;;;5.35;4.00;;;18.90;42.50;;;;;;5118478;28;20020;-52
2022/03/27 05:53:31;;;;;;;5.97;4.18;;;18.90;42.50;;;;;;5116229;28;20019;-53
2022/03/27 05:55:57;;;;;;;5.90;4.47;;;18.90;42.50;;;;;;5116106;28;20020;-53
2022/03/27 05:58:23;;;;;;;5.32;4.65;;;18.90;42.60;;;;;;5115855;28;20036;-54
2022/03/27 06:00:51;;;;;;;4.85;4.13;;;18.90;42.60;;;;;;5116315;28;20064;-59
2022/03/27 06:03:17;;;;;;;5.93;4.70;;;18.90;42.60;;;;;;5115965;28;20028;-59
2022/03/27 06:05:43;;;;;;;5.90;4.30;;;18.90;42.60;;;;;;5117397;28;20072;-58
2022/03/27 06:08:10;;;;;;;5.20;4.40;;;18.90;42.60;;;;;;5118003;28;20019;-59
2022/03/27 06:10:38;;;;;;;5.85;4.63;;;18.90;42.70;;;;;;5100629;28;20051;-59
2022/03/27 06:13:04;;;;;;;6.65;5.22;;;18.90;42.70;;;;;;5099633;28;20094;-60
2022/03/27 06:15:32;;;;;;;6.35;4.82;;;18.90;42.80;;;;;;5120390;28;20069;-59
2022/03/27 06:17:57;;;;;;;7.13;4.63;;;18.90;42.80;;;;;;5119470;28;20019;-59
2022/03/27 06:20:32;;;;;;;6.95;5.07;;;18.90;42.80;;;;;;5120225;28;20012;-59
2022/03/27 06:22:58;;;;;;;7.63;5.43;;;18.90;42.80;;;;;;5118716;28;20131;-59
2022/03/27 06:25:26;;;;;;;6.95;5.28;;;18.90;42.90;;;;;;5119119;28;20039;-58
2022/03/27 06:27:52;;;;;;;7.13;5.80;;;18.80;42.80;;;;;;5120225;28;20027;-59
2022/03/27 06:30:20;;;;;;;6.63;5.47;;;18.90;43.00;;;;;;5101501;28;20066;-58
2022/03/27 06:32:46;;;;;;;7.30;5.55;;;18.80;42.90;;;;;;5099910;28;20069;-58
2022/03/27 06:35:13;;;;;;;8.23;6.50;;;18.90;43.00;;;;;;5116893;28;20047;-58
2022/03/27 06:37:39;;;;;;;7.90;5.68;;;18.80;43.00;;;;;;5099034;28;20035;-59
2022/03/27 06:40:06;;;;;;;9.40;6.32;;;18.80;43.00;;;;;;5119521;28;20028;-59
2022/03/27 06:42:31;;;;;;;7.90;5.70;;;18.90;43.10;;;;;;5115853;28;20020;-58
2022/03/27 06:44:58;;;;;;;6.75;5.75;;;18.90;43.10;;;;;;5117809;28;20016;-58
2022/03/27 06:47:24;;;;;;;7.32;6.03;;;18.80;43.00;;;;;;5114920;28;20362;-58
2022/03/27 06:49:51;;;;;;;8.50;6.05;;;18.80;43.10;;;;;;5114969;28;20400;-57
2022/03/27 06:52:17;;;;;;;11.82;6.65;;;18.90;43.10;;;;;;5114541;28;20099;-57
2022/03/27 06:54:49;;;;;;;8.05;6.50;;;18.90;43.10;;;;;;5096789;28;20531;-59
2022/03/27 06:57:15;;;;;;;7.55;6.20;;;18.90;43.10;;;;;;5097102;28;20032;-57
2022/03/27 07:05:14;;;;;;;10.07;7.30;;;18.90;43.20;;;;;;5115467;28;20031;-59
2022/03/27 07:07:40;;;;;;;10.02;7.32;;;18.80;43.20;;;;;;5116427;28;20103;-58
2022/03/27 07:10:07;;;;;;;9.35;7.35;;;18.80;43.30;;;;;;5116546;28;20007;-57
2022/03/27 07:12:33;;;;;;;10.10;7.40;;;18.80;43.90;;;;;;5115488;28;20024;-58
2022/03/27 07:14:58;;;;;;;9.13;6.93;;;18.80;43.30;;;;;;5116611;28;20046;-58
2022/03/27 07:17:25;;;;;;;9.25;6.90;;;18.80;43.20;;;;;;5119549;28;20019;-58
2022/03/27 07:19:52;;;;;;;10.50;7.10;;;18.80;43.30;;;;;;5099636;28;20382;-58
2022/03/27 07:22:18;;;;;;;10.48;7.97;;;18.80;43.30;;;;;;5115784;28;20016;-58
2022/03/27 07:24:45;;;;;;;10.40;7.07;;;18.80;43.40;;;;;;5116074;28;20018;-58
2022/03/27 07:27:12;;;;;;;8.48;7.13;;;18.80;43.40;;;;;;5097896;28;20012;-59
2022/03/27 07:29:37;;;;;;;10.18;7.38;;;18.80;43.30;;;;;;5097597;28;20047;-59
2022/03/27 07:32:04;;;;;;;10.85;7.65;;;18.80;43.30;;;;;;5099152;28;20044;-59
2022/03/27 07:34:34;;;;;;;9.82;7.97;;;18.80;43.40;;;;;;5118340;28;20039;-58
2022/03/27 07:37:01;;;;;;;11.38;8.00;;;18.80;43.40;;;;;;5116144;28;20018;-58
2022/03/27 07:39:27;;;;;;;11.73;8.77;;;18.80;43.40;;;;;;5116083;28;20011;-59
2022/03/27 07:41:52;;;;;;;11.13;7.85;;;18.80;43.40;;;;;;5115766;28;20019;-53
2022/03/27 07:44:19;;;;;;;13.20;8.45;;;18.80;43.00;;;;;;5114580;28;20488;-54
2022/03/27 07:46:47;;;;;;;12.63;9.10;;;18.80;43.50;;;;;;5114724;28;20094;-53
2022/03/27 07:49:13;;;;;;;11.23;7.93;;;18.80;43.40;;;;;;5117606;28;20056;-57
2022/03/27 07:51:40;;;;;;;11.15;9.13;;;18.80;43.50;;;;;;5116621;28;20019;-56
2022/03/27 07:54:07;;;;;;;9.57;8.05;;;18.80;43.50;;;;;;5119524;28;20016;-54
2022/03/27 07:56:33;;;;;;;9.57;8.05;;;18.80;43.50;;;;;;5121442;28;20016;-56
2022/03/27 07:59:00;;;;;;;10.77;8.73;;;18.80;43.50;;;;;;5120570;28;20072;-53
2022/03/27 08:01:28;;;;;;;11.57;8.60;;;18.80;43.50;;;;;;5118968;28;20048;-54
2022/03/27 08:03:56;;;;;;;9.40;8.15;;;18.80;43.50;;;;;;5117491;28;20120;-52
2022/03/27 08:06:23;;;;;;;10.90;9.10;;;18.80;43.50;;;;;;5099238;28;20016;-52
2022/03/27 08:08:49;;;;;;;11.70;8.95;;;18.80;43.50;;;;;;5116516;28;20015;-49
2022/03/27 08:11:15;;;;;;;10.65;8.75;;;18.80;43.60;;;;;;5098998;28;20050;-53
2022/03/27 08:13:43;;;;;;;11.07;8.98;;;18.80;43.60;;;;;;5117160;28;20474;-53
2022/03/27 08:16:09;;;;;;;11.63;9.60;;;18.80;43.60;;;;;;5117221;28;20030;-49
2022/03/27 08:18:36;;;;;;;10.45;8.77;;;18.80;43.70;;;;;;5116505;28;20400;-48
2022/03/27 08:21:01;;;;;;;10.63;9.02;;;18.80;43.70;;;;;;5098329;28;20038;-51
2022/03/27 08:23:27;;;;;;;11.57;9.30;;;18.80;43.70;;;;;;5116555;28;20038;-48
2022/03/27 08:28:37;;;;;;;10.65;9.50;;;18.80;43.70;;;;;;5116397;28;20453;-48
2022/03/27 08:31:03;;;;;;;10.77;9.68;;;18.80;43.70;;;;;;5097999;28;20050;-47
2022/03/27 08:33:29;;;;;;;12.50;9.55;;;18.80;43.80;;;;;;5098174;28;20099;-48
2022/03/27 08:35:57;;;;;;;11.77;9.85;;;18.80;43.80;;;;;;5098048;28;20473;-48
2022/03/27 08:38:23;;;;;;;14.80;9.85;;;18.80;43.90;;;;;;5115807;28;20030;-47
2022/03/27 08:40:50;;;;;;;13.93;10.18;;;18.80;43.90;;;;;;5116042;28;20016;-49
2022/03/27 08:43:16;;;;;;;12.60;9.63;;;18.80;43.90;;;;;;5097721;28;20405;-48
2022/03/27 08:45:43;;;;;;;13.02;10.10;;;18.80;43.90;;;;;;5097514;28;20023;-48
2022/03/27 08:48:08;;;;;;;11.30;9.60;;;18.80;43.80;;;;;;5116020;28;20012;-49
2022/03/27 08:50:43;;;;;;;11.35;9.60;;;18.80;43.90;;;;;;5097919;28;20117;-47
2022/03/27 08:53:11;;;;;;;12.10;9.75;;;18.80;43.80;;;;;;5097421;28;20478;-48
2022/03/27 08:55:46;;;;;;;12.93;9.70;;;18.80;43.80;;;;;;5115732;28;20022;-49
2022/03/27 08:58:12;;;;;;;11.88;10.23;;;18.80;43.90;;;;;;5097567;28;20019;-48
2022/03/27 09:00:38;;;;;;;10.95;9.82;;;18.80;43.90;;;;;;5115487;28;20030;-52
2022/03/27 09:03:05;;;;;;;12.38;10.05;;;18.80;43.90;;;;;;5115608;28;20019;-53
2022/03/27 09:05:38;;;;;;;12.25;9.77;;;18.80;43.90;;;;;;5115110;28;20481;-52
2022/03/27 09:08:09;;;;;;;11.00;9.52;;;18.80;43.90;;;;;;5115887;28;20030;-51
2022/03/27 09:10:35;;;;;;;17.38;10.13;;;18.80;43.90;;;;;;5115995;28;20066;-49
2022/03/27 09:13:01;;;;;;;11.65;9.63;;;18.80;43.90;;;;;;5115727;28;20421;-51
2022/03/27 09:15:27;;;;;;;11.52;9.52;;;18.80;43.80;;;;;;5115520;28;20023;-50
2022/03/27 09:18:08;;;;;;;11.45;9.77;;;18.90;43.90;;;;;;5115224;28;20019;-54
2022/03/27 09:20:47;;;;;;;12.80;10.23;;;18.80;43.80;;;;;;5115643;28;20478;-48
2022/03/27 09:23:30;;;;;;;10.57;9.45;;;18.80;43.90;;;;;;5099786;28;20031;-49
2022/03/27 09:25:58;;;;;;;14.32;10.25;;;18.80;44.00;;;;;;5116995;28;20048;-48
2022/03/27 09:28:29;;;;;;;10.65;9.55;;;18.80;44.10;;;;;;5115155;28;20012;-47
2022/03/27 09:31:03;;;;;;;11.98;10.18;;;18.80;44.10;;;;;;5114950;28;20047;-48
2022/03/27 09:33:31;;;;;;;14.10;9.82;;;18.80;44.10;;;;;;5115398;28;20039;-48
2022/03/27 09:36:10;;;;;;;11.40;9.43;;;18.80;44.10;;;;;;5115430;28;20081;-48
2022/03/27 09:38:36;;;;;;;12.73;10.73;;;18.80;44.10;;;;;;5115409;28;20041;-49
2022/03/27 09:41:03;;;;;;;13.10;10.10;;;18.80;44.70;;;;;;5096930;28;20064;-49
2022/03/27 09:43:29;;;;;;;14.13;10.32;;;18.80;44.20;;;;;;5115093;28;20024;-51
2022/03/27 09:46:00;;;;;;;13.18;10.38;;;18.80;44.20;;;;;;5096886;28;20147;-51
2022/03/27 09:48:26;;;;;;;11.93;10.18;;;18.80;44.20;;;;;;5115298;28;20026;-51
2022/03/27 09:50:53;;;;;;;10.93;9.35;;;18.80;44.20;;;;;;5114502;28;20003;-53
2022/03/27 09:53:19;;;;;;;10.55;9.45;;;18.80;44.20;;;;;;5114162;28;20012;-51
2022/03/27 09:55:46;;;;;;;13.23;10.45;;;18.80;44.20;;;;;;5114514;28;20015;-50
2022/03/27 09:58:15;;;;;;;12.07;9.45;;;18.80;44.20;;;;;;5096478;28;20091;-50
2022/03/27 10:00:42;;;;;;;11.95;9.77;;;18.80;44.20;;;;;;5096835;28;20038;-58
2022/03/27 10:03:10;;;;;;;13.27;10.13;;;18.80;44.20;;;;;;5114453;28;20027;-57
2022/03/27 10:05:37;;;;;;;10.63;9.45;;;18.80;44.20;;;;;;5114644;28;20020;-59
2022/03/27 10:08:03;;;;;;;11.15;9.27;;;18.80;44.20;;;;;;5114304;28;20020;-59
2022/03/27 10:10:29;;;;;;;14.18;10.00;;;18.80;44.10;;;;;;5113955;28;20385;-59
2022/03/27 10:12:56;;;;;;;14.82;9.07;;;18.80;44.10;;;;;;5096087;28;20016;-58
2022/03/27 10:15:28;;;;;;;11.18;9.23;;;18.80;44.10;;;;;;5113912;28;20007;-59
2022/03/27 10:17:56;;;;;;;10.98;9.57;;;18.80;44.10;;;;;;5113915;28;20019;-58
2022/03/27 10:20:26;;;;;;;12.02;9.70;;;18.80;44.10;;;;;;5113855;28;20485;-58
2022/03/27 10:23:14;;;;;;;11.13;9.25;;;18.80;44.10;;;;;;5096124;28;20043;-59
2022/03/27 10:25:53;;;;;;;13.02;9.90;;;18.80;44.20;;;;;;5095487;28;20019;-59
2022/03/27 10:28:19;;;;;;;11.32;9.27;;;18.80;44.30;;;;;;5096855;28;20012;-59
2022/03/27 10:30:48;;;;;;;11.07;9.70;;;18.80;44.30;;;;;;5113419;28;20490;-59
2022/03/27 10:33:14;;;;;;;11.35;9.77;;;18.80;44.30;;;;;;5113874;28;20501;-59
2022/03/27 10:36:17;;;;;;;11.35;9.60;;;18.80;44.30;;;;;;5095799;28;20020;-59
2022/03/27 10:39:04;;;;;;;10.75;8.85;;;18.90;44.40;;;;;;5113589;28;20046;-57
2022/03/27 10:41:49;;;;;;;10.40;9.02;;;18.90;44.30;;;;;;5113873;28;20019;-59
2022/03/27 10:44:26;;;;;;;12.82;9.68;;;18.90;44.20;;;;;;5113575;28;20046;-58
2022/03/27 10:47:12;;;;;;;11.95;9.52;;;18.80;44.20;;;;;;5095894;28;20012;-60
2022/03/27 10:49:38;;;;;;;11.15;9.93;;;18.80;44.30;;;;;;5114063;28;20538;-58
2022/03/27 10:52:05;;;;;;;10.90;9.55;;;18.80;44.30;;;;;;5095415;28;20016;-58
2022/03/27 10:54:30;;;;;;;11.98;9.32;;;18.80;44.30;;;;;;5113717;28;20015;-58
2022/03/27 10:56:57;;;;;;;9.45;8.50;;;18.80;44.50;;;;;;5095503;28;20026;-58
2022/03/27 10:59:24;;;;;;;13.15;9.52;;;18.80;44.40;;;;;;5113557;28;20011;-59
2022/03/27 11:01:58;;;;;;;11.45;9.75;;;18.80;44.40;;;;;;5113404;28;20050;-59
2022/03/27 11:04:37;;;;;;;13.50;9.45;;;18.80;44.40;;;;;;5113322;28;20026;-58
2022/03/27 11:07:33;;;;;;;11.95;9.18;;;18.80;44.40;;;;;;5113954;28;20023;-58
2022/03/27 11:09:58;;;;;;;14.07;9.52;;;18.80;44.40;;;;;;5078459;28;20040;-60
2022/03/27 11:12:25;;;;;;;10.98;9.68;;;18.90;44.40;;;;;;5113995;28;20008;-59
2022/03/27 11:14:54;;;;;;;11.98;9.25;;;18.80;44.40;;;;;;5113838;28;20496;-59
2022/03/27 11:17:37;;;;;;;10.55;8.95;;;18.80;44.40;;;;;;5113498;28;20023;-58
2022/03/27 11:20:04;;;;;;;16.10;9.90;;;18.80;44.40;;;;;;5113490;28;20022;-59
2022/03/27 11:22:52;;;;;;;11.57;9.15;;;18.80;44.40;;;;;;5114065;28;20015;-60
2022/03/27 11:25:37;;;;;;;10.30;8.82;;;18.80;44.40;;;;;;5113610;28;20016;-59
2022/03/27 11:28:20;;;;;;;11.95;9.23;;;18.80;44.50;;;;;;5113426;28;20016;-59
2022/03/27 11:30:55;;;;;;;10.50;9.35;;;18.80;44.50;;;;;;5116980;28;20040;-59
2022/03/27 11:33:25;;;;;;;12.13;9.45;;;18.90;44.40;;;;;;5117850;28;20024;-60
2022/03/27 11:36:09;;;;;;;9.73;8.73;;;18.80;44.30;;;;;;5117447;28;20019;-59
2022/03/27 11:38:58;;;;;;;11.43;9.63;;;18.90;44.40;;;;;;5117202;28;20781;-59
2022/03/27 11:41:30;;;;;;;10.68;9.30;;;18.90;44.40;;;;;;5117077;28;20509;-58
2022/03/27 11:43:57;;;;;;;12.18;9.68;;;18.90;44.40;;;;;;5117002;28;20116;-59
2022/03/27 11:46:26;;;;;;;11.63;9.70;;;18.90;44.40;;;;;;5117038;28;20012;-59
2022/03/27 11:48:56;;;;;;;11.02;9.23;;;18.80;44.50;;;;;;5116844;28;20113;-58
2022/03/27 11:51:24;;;;;;;10.30;9.20;;;18.80;44.40;;;;;;5116810;28;20065;-59
2022/03/27 11:53:50;;;;;;;10.70;8.73;;;18.90;44.50;;;;;;5116673;28;20016;-59
2022/03/27 11:56:17;;;;;;;11.48;9.57;;;18.90;44.50;;;;;;5116779;28;20024;-58
2022/03/27 11:58:43;;;;;;;10.02;8.85;;;18.80;44.40;;;;;;5119403;28;20042;-59
2022/03/27 12:01:09;;;;;;;11.40;9.63;;;18.90;44.40;;;;;;5120172;28;20079;-58
2022/03/27 12:03:36;;;;;;;10.35;9.18;;;18.90;44.40;;;;;;5120829;28;20038;-58
2022/03/27 12:06:06;;;;;;;12.20;9.52;;;18.90;44.40;;;;;;5120209;28;20011;-57
2022/03/27 12:08:36;;;;;;;9.88;8.88;;;18.90;44.40;;;;;;5117736;28;20011;-58
2022/03/27 12:11:06;;;;;;;12.00;9.90;;;18.90;44.40;;;;;;5116802;28;20020;-58
2022/03/27 12:13:42;;;;;;;12.15;9.60;;;18.90;44.40;;;;;;5116576;28;20019;-58
2022/03/27 12:16:20;;;;;;;12.10;9.82;;;18.90;44.50;;;;;;5117973;28;20022;-58
2022/03/27 12:18:47;;;;;;;13.38;9.35;;;18.90;44.30;;;;;;5117868;28;20023;-58
2022/03/27 12:21:13;;;;;;;10.65;9.20;;;18.90;44.30;;;;;;5118730;28;20106;-57
2022/03/27 12:24:03;;;;;;;10.15;8.65;;;18.90;44.40;;;;;;5118873;28;20482;-58
2022/03/27 12:29:49;;;;;;;11.48;9.82;;;18.90;44.60;;;;;;5126072;28;20022;-58
2022/03/27 12:32:22;;;;;;;11.70;9.57;;;18.90;44.50;;;;;;5125616;28;20022;-58
2022/03/27 12:34:50;;;;;;;11.15;9.45;;;19.00;44.60;;;;;;5121942;28;20103;-58
2022/03/27 12:37:23;;;;;;;10.70;9.30;;;18.90;44.50;;;;;;5116032;28;20012;-57
2022/03/27 12:39:49;;;;;;;13.18;9.73;;;19.00;44.60;;;;;;5115796;28;20012;-58
2022/03/27 12:42:32;;;;;;;11.05;9.55;;;19.00;44.50;;;;;;5115989;28;20046;-58
2022/03/27 12:45:05;;;;;;;9.77;8.77;;;18.90;44.50;;;;;;5115897;28;20047;-57
2022/03/27 12:47:40;;;;;;;10.95;9.60;;;19.00;44.50;;;;;;5115695;28;20039;-58
2022/03/27 12:50:07;;;;;;;10.63;9.52;;;19.00;44.40;;;;;;5115761;28;20023;-57
2022/03/27 12:52:34;;;;;;;11.82;9.65;;;19.00;44.40;;;;;;5115488;28;20531;-58
2022/03/27 12:55:06;;;;;;;12.15;9.40;;;19.10;44.50;;;;;;5115707;28;20024;-57
2022/03/27 12:58:12;;;;;;;11.82;9.52;;;19.10;44.70;;;;;;5097255;28;20027;-58
2022/03/27 13:00:40;;;;;;;11.13;9.70;;;19.10;44.40;;;;;;5052469;28;20043;-58